createdAt,value
2024-05-09T03:57:02.233Z,9.80
2024-05-09T03:59:29.207Z,10.20
2024-05-09T04:01:56.075Z,10.20
2024-05-09T04:04:23.123Z,11.30
2024-05-09T04:06:49.815Z,11.00
2024-05-09T04:09:16.492Z,10.63
2024-05-09T04:11:43.302Z,12.20
2024-05-09T04:14:10.116Z,11.03
2024-05-09T04:16:36.860Z,10.37
2024-05-09T04:19:03.757Z,10.27
2024-05-09T04:21:30.562Z,10.20
2024-05-09T04:23:57.281Z,10.37
2024-05-09T04:26:24.017Z,9.83
2024-05-09T04:28:50.918Z,10.70
2024-05-09T04:31:17.695Z,11.07
2024-05-09T04:33:44.591Z,11.40
2024-05-09T04:36:11.680Z,10.70
2024-05-09T04:38:38.567Z,11.00
2024-05-09T04:41:05.368Z,11.07
2024-05-09T04:43:33.242Z,10.23
2024-05-09T04:45:59.943Z,11.23
2024-05-09T04:48:26.882Z,10.63
2024-05-09T04:50:53.864Z,10.50
2024-05-09T04:53:20.696Z,11.90
2024-05-09T04:55:47.641Z,10.23
2024-05-09T04:58:14.895Z,10.63
2024-05-09T05:00:41.959Z,11.57
2024-05-09T05:03:13.744Z,11.33
2024-05-09T05:05:43.750Z,11.03
2024-05-09T05:08:19.202Z,11.27
2024-05-09T05:10:47.448Z,11.53
2024-05-09T05:13:25.132Z,12.90
2024-05-09T05:15:55.906Z,12.10
2024-05-09T05:18:23.939Z,13.70
2024-05-09T05:20:51.378Z,12.73
2024-05-09T05:23:19.950Z,13.60
2024-05-09T05:25:54.412Z,12.80
2024-05-09T05:28:22.129Z,13.03
2024-05-09T05:30:48.990Z,13.17
2024-05-09T05:33:18.745Z,13.63
2024-05-09T05:35:46.074Z,12.90
2024-05-09T05:38:12.975Z,13.37
2024-05-09T05:40:40.775Z,13.27
2024-05-09T05:43:10.007Z,14.20
2024-05-09T05:45:37.262Z,14.70
2024-05-09T05:48:05.951Z,14.80
2024-05-09T05:50:36.537Z,17.13
2024-05-09T05:53:09.181Z,20.00
2024-05-09T05:55:37.611Z,19.83
2024-05-09T05:58:04.673Z,18.80
2024-05-09T06:00:38.321Z,21.10
2024-05-09T06:03:08.858Z,20.73
2024-05-09T06:05:37.352Z,20.13
2024-05-09T06:08:04.645Z,20.37
2024-05-09T06:10:38.013Z,21.67
2024-05-09T06:13:07.991Z,17.53
2024-05-09T06:15:34.800Z,22.43
2024-05-09T06:18:02.084Z,20.90
2024-05-09T06:20:35.727Z,21.10
2024-05-09T06:23:06.160Z,20.03
2024-05-09T06:25:33.837Z,20.47
2024-05-09T06:28:01.298Z,20.80
2024-05-09T06:30:36.948Z,18.23
2024-05-09T06:33:08.858Z,20.93
2024-05-09T06:35:36.670Z,19.53
2024-05-09T06:38:04.252Z,19.77
2024-05-09T06:40:37.316Z,20.33
2024-05-09T06:43:11.741Z,18.80
2024-05-09T06:45:39.652Z,19.73
2024-05-09T06:48:07.370Z,19.43
2024-05-09T06:50:37.952Z,19.87
2024-05-09T06:53:06.572Z,18.70
2024-05-09T06:55:33.650Z,20.27
2024-05-09T06:58:00.595Z,18.63
2024-05-09T07:00:35.327Z,17.37
2024-05-09T07:03:16.057Z,17.57
2024-05-09T07:05:45.549Z,19.03
2024-05-09T07:08:13.045Z,17.23
2024-05-09T07:10:39.942Z,15.87
2024-05-09T07:13:10.782Z,14.57
2024-05-09T07:15:37.837Z,16.70
2024-05-09T07:18:23.282Z,14.80
2024-05-09T07:20:50.794Z,14.40
2024-05-09T07:23:18.432Z,14.03
2024-05-09T07:25:45.857Z,13.97
2024-05-09T07:28:20.280Z,14.23
2024-05-09T07:30:47.433Z,14.10
2024-05-09T07:33:18.674Z,14.97
2024-05-09T07:35:46.186Z,14.70
2024-05-09T07:38:13.818Z,15.77
2024-05-09T07:40:41.531Z,15.70
2024-05-09T07:43:10.430Z,13.47
2024-05-09T07:45:48.538Z,13.97
2024-05-09T07:53:38.590Z,14.20
2024-05-09T07:56:07.942Z,13.13
2024-05-09T07:58:35.790Z,13.50
2024-05-09T08:01:02.744Z,14.00
2024-05-09T08:03:29.864Z,15.07
2024-05-09T08:05:56.831Z,15.10
2024-05-09T08:08:23.576Z,13.03
2024-05-09T08:10:50.895Z,13.20
2024-05-09T08:13:17.796Z,12.33
2024-05-09T08:15:44.830Z,10.40
2024-05-09T08:18:11.950Z,9.80
2024-05-09T08:20:40.263Z,8.13
2024-05-09T08:23:07.378Z,8.60
2024-05-09T08:25:34.175Z,8.07
2024-05-09T08:28:01.015Z,8.47
2024-05-09T08:30:33.717Z,6.80
2024-05-09T08:33:04.822Z,6.80
2024-05-09T08:35:32.405Z,7.20
2024-05-09T08:37:59.366Z,7.30
2024-05-09T08:40:33.601Z,5.60
2024-05-09T08:43:04.994Z,5.87
2024-05-09T08:45:34.574Z,5.30
2024-05-09T08:48:05.594Z,6.53
2024-05-09T08:50:38.795Z,7.60
2024-05-09T08:53:07.783Z,6.10
2024-05-09T08:55:37.367Z,6.20
2024-05-09T08:58:08.440Z,5.73
2024-05-09T09:00:38.065Z,6.07
2024-05-09T09:03:09.026Z,5.50
2024-05-09T09:05:39.535Z,5.30
2024-05-09T09:08:08.621Z,5.33
2024-05-09T09:10:37.883Z,6.17
2024-05-09T09:13:07.224Z,5.40
2024-05-09T09:15:34.121Z,5.57
2024-05-09T09:18:01.327Z,5.87
2024-05-09T09:20:35.934Z,4.60
2024-05-09T09:23:04.318Z,4.27
2024-05-09T09:25:31.847Z,4.17
2024-05-09T09:27:58.875Z,3.70
2024-05-09T09:30:36.322Z,4.47
2024-05-09T09:33:08.737Z,4.40
2024-05-09T09:35:40.331Z,4.97
2024-05-09T09:38:11.121Z,5.23
2024-05-09T09:40:46.920Z,4.50
2024-05-09T09:43:21.272Z,3.83
2024-05-09T09:45:51.548Z,4.10
2024-05-09T09:48:21.093Z,3.80
2024-05-09T09:50:48.881Z,3.00
2024-05-09T09:53:16.845Z,4.23
2024-05-09T09:55:43.684Z,4.20
2024-05-09T09:58:13.442Z,4.30
2024-05-09T10:00:41.459Z,3.80
2024-05-09T10:03:08.528Z,3.60
2024-05-09T10:05:35.706Z,3.90
2024-05-09T10:08:07.314Z,3.33
2024-05-09T10:10:35.665Z,3.20
2024-05-09T10:13:08.960Z,3.20
2024-05-09T10:15:52.516Z,3.17
2024-05-09T10:18:28.061Z,3.57
2024-05-09T10:20:57.318Z,3.50
2024-05-09T10:23:24.804Z,3.13
2024-05-09T10:26:01.947Z,3.70
2024-05-09T10:28:29.372Z,4.10
2024-05-09T10:31:03.305Z,3.50
2024-05-09T10:33:48.577Z,3.87
2024-05-09T10:36:25.854Z,3.53
2024-05-09T10:38:54.236Z,3.13
2024-05-09T10:41:22.482Z,3.33
2024-05-09T10:43:50.541Z,3.63
2024-05-09T10:46:20.709Z,3.13
2024-05-09T10:48:48.436Z,3.20
2024-05-09T10:51:16.975Z,3.10
2024-05-09T10:53:45.446Z,3.87
2024-05-09T10:56:14.431Z,3.10
2024-05-09T10:58:41.377Z,2.87
2024-05-09T11:01:09.723Z,2.87
2024-05-09T11:03:37.311Z,2.80
2024-05-09T11:06:05.359Z,3.30
2024-05-09T11:08:32.940Z,2.77
2024-05-09T11:11:00.308Z,3.70
2024-05-09T11:13:34.405Z,3.07
2024-05-09T11:16:02.145Z,3.73
2024-05-09T11:18:33.482Z,3.13
2024-05-09T11:21:03.303Z,3.20
2024-05-09T11:23:30.517Z,3.20
2024-05-09T11:25:58.961Z,3.33
2024-05-09T11:28:29.012Z,2.73
2024-05-09T11:31:06.662Z,3.10
2024-05-09T11:33:37.954Z,4.53
2024-05-09T11:36:05.839Z,2.77
2024-05-09T11:38:33.038Z,3.03
2024-05-09T11:40:59.829Z,3.10
2024-05-09T11:43:26.588Z,2.80
2024-05-09T11:45:53.467Z,3.03
2024-05-09T11:48:20.432Z,3.17
2024-05-09T11:50:47.291Z,3.13
2024-05-09T11:53:14.056Z,2.83
2024-05-09T11:55:40.794Z,2.90
2024-05-09T11:58:08.340Z,2.97
2024-05-09T12:00:37.461Z,2.67
2024-05-09T12:03:05.969Z,4.33
2024-05-09T12:05:34.117Z,3.30
2024-05-09T12:08:01.447Z,2.77
2024-05-09T12:10:33.370Z,2.87
2024-05-09T12:13:04.724Z,3.10
2024-05-09T12:15:33.153Z,2.60
2024-05-09T12:18:02.496Z,2.93
2024-05-09T12:20:36.665Z,2.90
2024-05-09T12:23:06.554Z,2.77
2024-05-09T12:25:33.570Z,2.70
2024-05-09T12:28:00.978Z,4.67
2024-05-09T12:30:36.214Z,2.63
2024-05-09T12:33:10.332Z,2.97
2024-05-09T12:35:38.067Z,7.10
2024-05-09T12:38:05.170Z,2.70
2024-05-09T12:40:36.656Z,3.33
2024-05-09T12:43:08.109Z,3.83
2024-05-09T12:45:36.014Z,2.70
2024-05-09T12:48:04.585Z,2.60
2024-05-09T12:50:33.671Z,2.27
2024-05-09T12:53:02.771Z,2.50
2024-05-09T12:55:36.618Z,2.23
2024-05-09T12:58:08.870Z,2.40
2024-05-09T13:00:36.079Z,2.77
2024-05-09T13:03:03.289Z,2.80
2024-05-09T13:05:30.472Z,2.83
2024-05-09T13:07:57.556Z,2.90
2024-05-09T13:10:31.779Z,3.10
2024-05-09T13:13:01.134Z,2.53
2024-05-09T13:15:29.703Z,2.50
2024-05-09T13:18:00.265Z,2.43
2024-05-09T13:20:33.220Z,2.63
2024-05-09T13:23:03.561Z,2.87
2024-05-09T13:25:30.437Z,2.90
2024-05-09T13:27:58.255Z,3.03
2024-05-09T13:30:34.374Z,3.20
2024-05-09T13:33:06.961Z,3.63
2024-05-09T13:35:35.406Z,2.53
2024-05-09T13:38:02.913Z,2.50
2024-05-09T13:40:34.176Z,2.73
2024-05-09T13:43:04.067Z,2.77
2024-05-09T13:45:31.184Z,2.70
2024-05-09T13:47:58.286Z,3.10
2024-05-09T13:50:33.209Z,2.67
2024-05-09T13:53:03.031Z,3.03
2024-05-09T13:55:29.811Z,3.00
2024-05-09T13:57:56.965Z,2.60
2024-05-09T14:02:54.759Z,2.50
2024-05-09T14:05:22.086Z,3.20
2024-05-09T14:07:49.047Z,2.50
2024-05-09T14:10:22.999Z,2.50
2024-05-09T14:12:55.407Z,2.70
2024-05-09T14:15:22.191Z,2.63
2024-05-09T14:17:48.954Z,2.67
2024-05-09T14:20:23.828Z,2.60
2024-05-09T14:22:57.403Z,3.17
2024-05-09T14:25:26.276Z,3.00
2024-05-09T14:27:53.341Z,2.87
2024-05-09T14:30:29.737Z,2.90
2024-05-09T14:33:01.678Z,3.30
2024-05-09T14:35:28.528Z,3.10
2024-05-09T14:37:55.307Z,2.53
2024-05-09T14:40:35.371Z,2.97
2024-05-09T14:43:07.499Z,3.37
2024-05-09T14:45:34.646Z,2.97
2024-05-09T14:48:02.281Z,2.90
2024-05-09T14:50:35.788Z,2.83
2024-05-09T14:53:06.821Z,2.50
2024-05-09T14:55:37.384Z,3.37
2024-05-09T14:58:08.889Z,3.07
2024-05-09T15:00:41.693Z,2.73
2024-05-09T15:03:11.881Z,3.43
2024-05-09T15:05:38.903Z,2.50
2024-05-09T15:08:07.132Z,2.90
2024-05-09T15:10:36.236Z,2.90
2024-05-09T15:13:04.581Z,2.60
2024-05-09T15:15:31.684Z,2.77
2024-05-09T15:17:59.280Z,2.43
2024-05-09T15:20:33.268Z,3.00
2024-05-09T15:23:03.338Z,3.10
2024-05-09T15:25:30.618Z,3.83
2024-05-09T15:27:57.688Z,2.37
2024-05-09T15:30:30.639Z,3.00
2024-05-09T15:33:00.888Z,3.00
2024-05-09T15:35:28.116Z,3.50
2024-05-09T15:37:55.385Z,2.90
2024-05-09T15:40:31.235Z,3.55
2024-05-09T15:43:05.837Z,4.22
2024-05-09T15:45:32.984Z,4.35
2024-05-09T15:48:00.463Z,4.68
2024-05-09T15:50:36.286Z,4.10
2024-05-09T15:53:07.462Z,3.10
2024-05-09T15:55:35.137Z,3.47
2024-05-09T15:58:03.380Z,3.30
2024-05-09T16:00:38.358Z,2.78
2024-05-09T16:03:09.455Z,2.83
2024-05-09T16:05:37.098Z,3.57
2024-05-09T16:08:04.514Z,2.90
2024-05-09T16:10:33.305Z,2.83
2024-05-09T16:13:02.166Z,3.30
2024-05-09T16:15:32.461Z,2.97
2024-05-09T16:18:00.657Z,3.93
2024-05-09T16:20:37.211Z,3.60
2024-05-09T16:23:08.160Z,2.77
2024-05-09T16:25:35.663Z,3.30
2024-05-09T16:28:07.534Z,3.77
2024-05-09T16:30:37.853Z,3.13
2024-05-09T16:33:05.758Z,2.97
2024-05-09T16:35:34.294Z,3.30
2024-05-09T16:38:03.096Z,3.00
2024-05-09T16:40:37.449Z,3.17
2024-05-09T16:43:07.934Z,3.17
2024-05-09T16:45:35.257Z,2.93
2024-05-09T16:48:02.535Z,3.20
2024-05-09T16:50:33.870Z,3.00
2024-05-09T16:53:06.080Z,3.13
2024-05-09T16:55:33.626Z,3.33
2024-05-09T16:58:01.054Z,3.07
2024-05-09T17:00:38.309Z,3.03
2024-05-09T17:03:10.612Z,2.87
2024-05-09T17:05:38.469Z,2.80
2024-05-09T17:08:06.297Z,3.07
2024-05-09T17:10:34.996Z,3.23
2024-05-09T17:13:04.651Z,2.93
2024-05-09T17:15:33.304Z,2.77
2024-05-09T17:18:01.024Z,3.43
2024-05-09T17:20:33.251Z,3.20
2024-05-09T17:23:03.630Z,2.70
2024-05-09T17:25:30.537Z,3.17
2024-05-09T17:27:59.412Z,3.20
2024-05-09T17:30:32.428Z,2.83
2024-05-09T17:33:07.486Z,3.20
2024-05-09T17:35:35.673Z,2.87
2024-05-09T17:38:02.670Z,3.60
2024-05-09T17:40:33.824Z,2.90
2024-05-09T17:43:04.816Z,3.00
2024-05-09T17:45:32.415Z,2.80
2024-05-09T17:47:59.987Z,3.23
2024-05-09T17:50:34.692Z,3.20
2024-05-09T17:53:04.154Z,2.83
2024-05-09T17:55:31.094Z,2.60
2024-05-09T17:57:58.083Z,3.30
2024-05-09T18:00:36.266Z,3.13
2024-05-09T18:03:07.577Z,3.33
2024-05-09T18:05:36.686Z,3.40
2024-05-09T18:08:04.540Z,3.37
2024-05-09T18:10:36.685Z,3.37
2024-05-09T18:13:07.064Z,3.27
2024-05-09T18:15:34.703Z,3.33
2024-05-09T18:18:02.454Z,2.90
2024-05-09T18:20:38.078Z,3.27
2024-05-09T18:23:10.624Z,3.33
2024-05-09T18:25:37.547Z,3.57
2024-05-09T18:28:05.484Z,3.10
2024-05-09T18:30:35.386Z,3.40
2024-05-09T18:33:05.760Z,3.30
2024-05-09T18:35:33.752Z,3.70
2024-05-09T18:38:00.694Z,3.47
2024-05-09T18:40:33.150Z,2.77
2024-05-09T18:43:04.240Z,2.80
2024-05-09T18:45:31.329Z,2.93
2024-05-09T18:47:58.539Z,3.07
2024-05-09T18:50:34.229Z,3.60
2024-05-09T18:53:08.521Z,3.47
2024-05-09T18:55:35.456Z,3.30
2024-05-09T18:58:03.110Z,3.30
2024-05-09T19:00:35.734Z,3.13
2024-05-09T19:03:09.349Z,3.40
2024-05-09T19:05:38.845Z,3.37
2024-05-09T19:08:07.346Z,4.10
2024-05-09T19:10:35.713Z,4.33
2024-05-09T19:13:08.144Z,4.00
2024-05-09T19:15:38.788Z,4.37
2024-05-09T19:18:06.572Z,4.17
2024-05-09T19:20:35.395Z,4.57
2024-05-09T19:23:03.954Z,4.53
2024-05-09T19:25:30.829Z,4.33
2024-05-09T19:27:58.011Z,4.87
2024-05-09T19:30:34.332Z,4.43
2024-05-09T19:33:06.629Z,4.50
2024-05-09T19:35:33.477Z,4.73
2024-05-09T19:38:00.393Z,4.57
2024-05-09T19:40:31.808Z,4.50
2024-05-09T19:43:01.690Z,4.90
2024-05-09T19:45:29.243Z,5.27
2024-05-09T19:47:56.791Z,5.43
2024-05-09T19:50:32.145Z,5.77
2024-05-09T19:53:06.845Z,8.93
2024-05-09T19:55:34.198Z,7.97
2024-05-09T19:58:04.899Z,6.47
2024-05-09T20:00:39.040Z,7.43
2024-05-09T20:03:08.729Z,6.13
2024-05-09T20:05:36.951Z,5.97
2024-05-09T20:08:05.149Z,6.53
2024-05-09T20:10:34.259Z,7.47
2024-05-09T20:13:03.330Z,6.43
2024-05-09T20:15:35.032Z,6.40
2024-05-09T20:18:02.502Z,6.50
2024-05-09T20:20:38.080Z,6.30
2024-05-09T20:23:09.550Z,4.83
2024-05-09T20:25:36.638Z,5.80
2024-05-09T20:28:03.660Z,5.20
2024-05-09T20:30:33.024Z,6.03
2024-05-09T20:33:05.474Z,5.40
2024-05-09T20:35:33.787Z,5.90
2024-05-09T20:38:01.563Z,5.67
2024-05-09T20:40:33.456Z,5.13
2024-05-09T20:43:04.180Z,5.23
2024-05-09T20:45:31.418Z,5.57
2024-05-09T20:47:58.404Z,5.50
2024-05-09T20:50:35.618Z,5.50
2024-05-09T20:53:12.167Z,5.10
2024-05-09T20:55:40.180Z,4.80
2024-05-09T20:58:07.009Z,5.70
2024-05-09T21:00:39.900Z,5.57
2024-05-09T21:03:11.386Z,5.30
2024-05-09T21:05:39.200Z,5.13
2024-05-09T21:08:06.716Z,5.27
2024-05-09T21:10:35.166Z,5.40
2024-05-09T21:13:03.350Z,5.00
2024-05-09T21:15:31.191Z,5.07
2024-05-09T21:17:58.480Z,5.40
2024-05-09T21:20:31.015Z,6.67
2024-05-09T21:22:59.971Z,6.50
2024-05-09T21:25:27.043Z,5.93
2024-05-09T21:27:54.094Z,6.50
2024-05-09T21:30:31.722Z,6.67
2024-05-09T21:33:09.314Z,6.67
2024-05-09T21:35:37.292Z,6.67
2024-05-09T21:38:04.652Z,5.97
2024-05-09T21:40:34.977Z,5.20
2024-05-09T21:43:04.585Z,5.70
2024-05-09T21:45:31.893Z,5.60
2024-05-09T21:47:58.983Z,5.50
2024-05-09T21:50:32.507Z,6.40
2024-05-09T21:53:06.187Z,6.93
2024-05-09T21:55:33.188Z,5.87
2024-05-09T21:58:00.675Z,6.27
2024-05-09T22:00:34.776Z,5.93
2024-05-09T22:03:08.763Z,6.50
2024-05-09T22:05:37.282Z,5.73
2024-05-09T22:08:04.632Z,5.93
2024-05-09T22:10:34.859Z,5.80
2024-05-09T22:13:04.705Z,6.87
2024-05-09T22:15:37.204Z,5.93
2024-05-09T22:18:05.529Z,5.57
2024-05-09T22:20:37.335Z,5.03
2024-05-09T22:23:06.231Z,6.20
2024-05-09T22:25:33.493Z,6.23
2024-05-09T22:28:01.867Z,6.40
2024-05-09T22:30:35.821Z,6.17
2024-05-09T22:33:07.418Z,6.20
2024-05-09T22:35:36.654Z,6.00
2024-05-09T22:38:03.714Z,6.43
2024-05-09T22:40:42.143Z,6.17
2024-05-09T22:43:17.358Z,6.23
2024-05-09T22:45:44.524Z,6.63
2024-05-09T22:48:11.519Z,6.77
2024-05-09T22:50:38.830Z,6.70
2024-05-09T22:53:05.703Z,6.10
2024-05-09T22:55:32.571Z,6.90
2024-05-09T22:57:59.583Z,6.70
2024-05-09T23:00:31.431Z,6.03
2024-05-09T23:03:03.134Z,6.57
2024-05-09T23:05:30.848Z,7.53
2024-05-09T23:07:58.176Z,6.73
2024-05-09T23:10:32.134Z,6.33
2024-05-09T23:13:03.364Z,6.57
2024-05-09T23:15:30.348Z,6.03
2024-05-09T23:17:57.664Z,6.73
2024-05-09T23:20:33.442Z,7.00
2024-05-09T23:23:05.412Z,6.67
2024-05-09T23:25:32.459Z,7.07
2024-05-09T23:27:59.374Z,6.83
2024-05-09T23:30:34.334Z,6.83
2024-05-09T23:33:05.937Z,7.23
2024-05-09T23:35:32.923Z,7.50
2024-05-09T23:37:59.739Z,7.77
2024-05-09T23:40:35.041Z,6.83
2024-05-09T23:43:06.305Z,7.50
2024-05-09T23:45:33.424Z,6.83
2024-05-09T23:48:00.732Z,5.67
2024-05-09T23:50:34.338Z,6.23
2024-05-09T23:53:04.867Z,5.73
2024-05-09T23:55:32.195Z,5.90
2024-05-09T23:57:59.409Z,6.17
